Date,TemperatureHighF,TemperatureAvgF,TemperatureLowF,DewpointHighF,DewpointAvgF,DewpointLowF,HumidityHigh,HumidityAvg,HumidityLow,PressureMaxIn,PressureMinIn,WindSpeedMaxMPH,WindSpeedAvgMPH,GustSpeedMaxMPH,PrecipitationSumIn
2014-1-1,28.3,20.1,14.6,16.8,12.6,8.5,87,72,57,30.34,30.13,3,0,10,0.00
2014-1-2,18.9,11.1,0.7,17.4,9.5,-1.3,98,93,87,30.32,29.83,1,0,14,0.00
2014-1-3,15.8,5.1,-2.5,8.1,-0.4,-9.6,95,78,58,30.36,29.70,3,1,13,0.00
2014-1-4,24.5,11.3,-3.5,17.6,2.5,-9.4,79,68,42,30.44,30.23,4,1,17,0.00
2014-1-5,38.2,28.1,17.2,33.3,23.2,14.2,100,82,61,30.28,29.91,4,0,14,0.01
2014-1-6,53.9,36.7,25.0,39.6,-18.5,-99.9,100,60,83,29.91,29.28,6,1,19,0.76
2014-1-7,24.9,12.3,5.9,21.0,2.2,-6.0,86,63,52,30.17,29.49,6,3,16,0.00
2014-1-8,21.1,12.1,4.6,9.4,3.1,-4.7,73,67,57,30.42,30.17,4,1,15,0.00
2014-1-9,30.5,18.9,12.8,16.8,11.3,7.7,89,72,53,30.61,30.39,2,0,7,0.00
2014-1-10,35.5,26.0,10.0,35.2,24.9,8.2,100,95,82,30.56,30.25,1,0,7,0.01
2014-1-11,55.1,43.5,32.5,47.9,-32.3,-99.9,100,50,100,30.25,29.25,6,1,19,0.41
2014-1-12,50.3,39.7,33.3,38.7,-0.8,-99.9,100,63,79,29.95,29.27,6,2,26,0.08
2014-1-13,49.7,38.6,28.4,44.4,34.4,27.7,98,86,62,30.10,29.88,4,1,16,0.00
2014-1-14,45.8,43.9,39.4,45.8,43.8,39.1,100,100,96,29.88,29.61,4,1,17,0.53
2014-1-15,46.4,37.0,30.7,43.6,36.5,30.6,100,98,85,30.00,29.75,3,0,10,0.01
2014-1-16,31.4,30.5,29.6,31.4,30.5,29.5,100,100,100,29.88,29.84,0,0,1,0.00
2014-1-17,43.7,36.2,30.2,36.1,31.4,28.4,100,83,63,29.96,29.88,3,1,10,0.00
2014-1-18,33.7,31.1,28.6,33.7,31.0,28.6,100,100,96,29.90,29.61,0,0,1,0.00
2014-1-19,33.2,29.7,26.8,31.6,28.9,25.0,100,97,90,29.71,29.51,3,0,14,0.00
2014-1-20,41.7,32.1,22.4,34.5,28.7,16.6,97,87,73,29.85,29.47,5,1,16,0.11
2014-1-21,22.1,14.1,9.2,16.3,6.9,1.0,92,73,54,30.04,29.86,1,0,9,0.00
2014-1-22,20.7,10.1,4.5,7.2,1.1,-3.7,91,67,50,29.86,29.64,3,1,14,0.00
2014-1-23,23.2,9.9,0.1,9.0,0.7,-5.6,78,66,49,30.13,29.86,3,0,8,0.00
2014-1-24,20.8,10.5,4.0,5.6,0.8,-3.7,78,65,49,30.24,30.01,2,0,11,0.00
2014-1-25,35.1,22.5,12.0,28.9,17.0,1.9,100,79,62,30.01,29.32,7,2,25,0.00
2014-1-26,23.1,17.5,11.5,20.9,8.3,1.0,94,67,49,29.86,29.33,6,2,13,0.01
2014-1-27,43.3,25.3,17.3,40.6,20.3,8.5,100,82,58,29.98,29.51,5,1,18,0.16
2014-1-28,20.1,14.7,9.1,9.4,2.2,-3.4,69,57,46,30.28,29.98,3,1,9,0.00
2014-1-29,28.1,17.8,12.9,10.4,5.9,1.0,86,60,40,30.21,29.96,3,0,12,0.00
2014-1-30,31.0,19.0,10.4,15.6,8.4,1.5,81,63,49,30.42,30.17,3,0,11,0.00
2014-1-31,41.6,30.0,17.2,27.8,22.4,12.7,100,75,52,30.20,30.01,2,0,9,0.02
2014-2-1,45.6,35.1,26.6,33.1,28.1,23.2,100,76,57,30.35,30.04,3,0,9,0.04
2014-2-2,51.9,38.0,31.6,43.8,37.3,31.6,100,98,73,30.07,29.86,2,0,6,0.05
2014-2-3,35.3,29.9,21.2,35.3,28.9,21.1,100,96,75,30.29,30.07,0,0,4,0.00
2014-2-4,36.2,25.6,15.9,28.3,23.0,15.9,100,91,70,30.45,30.28,1,0,5,0.02
2014-2-5,28.0,25.5,22.3,27.8,25.4,22.3,100,100,96,30.31,29.65,0,0,6,0.00
2014-2-6,31.8,20.8,12.7,22.3,16.0,11.2,100,83,54,30.27,29.95,1,0,4,0.00
2014-2-7,33.1,19.8,8.8,20.1,12.6,6.2,91,74,57,30.25,30.14,3,0,10,0.00
2014-2-8,31.6,21.2,10.6,15.4,10.0,2.2,75,62,45,30.29,30.12,2,0,9,0.00
2014-2-9,34.5,24.6,17.8,25.4,18.9,12.3,100,80,59,30.18,29.94,2,0,7,0.00
2014-2-10,30.9,20.6,11.4,23.5,15.6,7.6,100,82,55,30.21,29.90,2,0,8,0.00
2014-2-11,30.0,14.8,6.2,14.4,7.5,2.3,92,74,48,30.45,30.21,2,0,10,0.00
2014-2-12,31.9,14.8,-0.5,10.3,3.5,-5.1,81,62,35,30.57,30.42,1,0,7,0.00
2014-2-13,31.7,23.3,14.3,31.7,21.4,5.3,100,93,67,30.41,29.05,1,0,11,0.00
2014-2-14,35.2,31.1,27.3,32.8,29.9,25.8,100,95,87,29.75,28.87,3,0,16,0.00
2014-2-15,35.1,28.3,23.5,32.1,27.7,23.5,100,98,86,29.87,29.52,0,0,3,0.00
2014-2-16,34.6,25.1,18.2,28.4,18.2,13.4,100,75,54,29.98,29.51,4,1,16,0.00
2014-2-17,32.4,18.3,8.5,12.8,5.1,0.0,74,56,36,30.38,29.99,4,1,13,0.00
2014-2-18,25.1,15.8,4.7,25.1,12.6,-0.6,100,87,67,30.37,29.92,0,0,4,0.00
2014-2-19,36.7,26.8,16.6,32.9,26.2,16.6,100,98,82,30.10,29.75,0,0,6,0.00
2014-2-20,50.3,36.4,29.5,38.4,32.3,29.1,100,87,56,30.25,29.85,4,0,16,0.00
2014-2-21,37.8,34.6,32.3,37.8,34.6,32.3,100,100,100,30.18,29.70,0,0,3,0.47
2014-2-22,52.6,39.7,31.0,37.9,32.8,30.1,100,79,48,29.98,29.85,6,2,18,0.64
2014-2-23,48.5,40.4,34.9,35.1,31.1,27.5,81,69,56,30.00,29.79,2,0,10,0.02
2014-2-24,41.4,30.6,20.4,32.0,20.5,12.0,84,66,50,29.96,29.76,6,2,15,0.00
2014-2-25,33.1,22.7,16.0,17.9,12.9,8.5,80,66,50,29.99,29.88,4,1,20,0.00
2014-2-26,33.7,18.9,9.8,19.6,7.7,-1.9,79,62,44,29.94,29.77,4,1,15,0.00
2014-2-27,31.8,17.0,7.5,22.6,6.0,-3.2,87,62,40,29.93,29.59,5,1,18,0.00
2014-2-28,30.6,15.6,4.9,7.7,0.1,-5.2,65,51,29,30.45,29.93,5,1,13,0.00
2014-3-1,37.2,20.8,3.1,23.1,10.5,-2.5,80,65,44,30.46,30.10,4,1,13,0.00
2014-3-2,42.1,32.8,26.8,32.2,25.5,19.1,92,74,61,30.10,29.99,1,0,7,0.00
2014-3-3,26.7,20.0,8.4,19.5,9.3,0.5,75,63,49,30.32,30.01,2,0,9,0.00
2014-3-4,31.9,17.7,0.9,12.7,5.1,-3.3,84,59,37,30.39,30.26,2,0,10,0.00
2014-3-5,29.5,22.7,13.7,23.0,17.7,7.9,95,81,63,30.53,30.25,0,0,5,0.00
2014-3-6,35.1,18.4,4.4,9.4,3.1,-4.0,77,53,28,30.65,30.53,2,0,6,0.00
2014-3-7,42.1,23.6,3.2,28.4,15.5,-0.1,93,72,46,30.53,30.00,2,0,7,0.00
2014-3-8,57.0,36.3,21.7,38.4,29.5,20.5,98,78,47,29.99,29.73,2,0,8,0.00
2014-3-9,45.1,33.0,24.9,25.9,19.9,13.8,78,59,38,29.97,29.89,3,1,12,0.00
2014-3-10,46.0,34.8,26.7,32.5,26.9,17.1,99,74,58,29.92,29.66,2,0,13,0.00
2014-3-11,57.9,42.9,32.5,42.6,35.3,31.2,100,76,50,29.76,29.53,4,1,13,0.00
2014-3-12,45.9,37.9,34.1,40.7,35.8,32.3,100,92,77,29.76,29.08,1,0,8,0.44
2014-3-13,34.1,21.9,14.2,34.1,16.7,4.8,100,81,58,29.97,29.04,6,2,17,0.05
2014-3-14,40.8,25.4,11.0,28.2,14.6,3.6,82,64,43,30.20,29.93,5,1,15,0.01
2014-3-15,57.5,41.7,33.1,43.4,35.3,26.9,100,79,54,29.94,29.69,7,2,18,0.00
2014-3-16,39.2,30.2,21.2,26.6,16.2,6.9,83,57,33,30.23,29.92,5,2,15,0.01
2014-3-17,36.1,23.4,14.5,12.7,5.7,-0.4,67,47,31,30.23,30.07,1,0,10,0.00
2014-3-18,44.6,26.4,12.0,23.9,14.0,5.0,89,62,32,30.40,30.19,1,0,6,0.00
2014-3-19,46.7,31.1,18.7,33.6,27.2,18.7,100,87,58,30.43,30.05,2,0,9,0.00
2014-3-20,52.8,38.9,32.0,46.8,35.5,30.5,100,88,65,30.05,29.65,5,1,12,0.54
2014-3-21,42.9,36.0,29.3,30.4,28.2,24.5,82,73,60,30.08,29.78,5,2,15,0.00
2014-3-22,54.3,36.6,25.4,46.3,29.8,22.8,97,77,56,30.09,29.70,8,1,17,0.00
2014-3-23,45.4,34.7,22.1,29.3,22.5,7.5,86,62,39,30.12,29.95,3,1,11,0.00
2014-3-24,38.0,24.2,13.6,15.0,6.8,2.2,64,48,31,30.20,30.08,3,1,13,0.00
2014-3-25,43.4,28.1,16.1,21.0,14.8,8.7,76,58,38,30.18,29.97,4,0,15,0.00
2014-3-26,35.6,29.0,21.5,22.2,15.4,4.4,78,58,37,30.06,29.66,8,3,26,0.00
2014-3-27,48.5,31.5,17.4,20.7,11.3,2.9,55,43,28,30.36,30.06,4,1,14,0.00
2014-3-28,54.9,43.2,33.7,50.4,37.9,19.4,100,82,54,30.29,29.99,6,2,18,0.00
2014-3-29,52.0,43.9,37.9,49.0,42.5,37.9,100,95,76,30.30,30.05,3,0,10,0.64
2014-3-30,39.4,37.6,34.7,39.4,37.6,34.7,100,100,100,30.06,29.70,2,0,16,2.08
2014-3-31,39.3,35.4,32.4,38.4,34.9,32.4,100,98,91,30.06,29.73,4,1,12,0.84
2014-4-1,61.3,42.5,29.3,44.6,35.8,29.3,100,80,51,30.15,30.05,2,0,9,0.00
2014-4-2,62.1,44.3,29.6,45.6,37.0,29.6,100,78,51,30.16,30.05,3,0,10,0.00
2014-4-3,63.6,45.6,33.2,40.4,33.1,27.2,99,64,38,30.18,30.08,2,0,10,0.00
2014-4-4,57.2,40.9,32.8,38.8,34.5,31.2,100,80,50,30.20,29.95,2,0,16,0.15
2014-4-5,57.9,41.1,34.1,52.5,37.2,28.6,100,87,64,29.98,29.74,6,2,15,0.20
2014-4-6,63.7,44.7,28.3,37.4,30.0,26.1,94,60,31,30.23,29.98,3,1,9,0.00
2014-4-7,63.2,47.2,33.3,42.5,33.0,27.8,100,61,35,30.28,29.96,4,1,14,0.01
2014-4-8,66.1,51.0,41.3,62.4,48.6,37.9,100,92,69,29.95,29.34,6,2,19,0.32
2014-4-9,66.1,47.1,35.5,47.5,34.4,18.8,100,65,32,30.01,29.56,6,2,15,0.00
2014-4-10,68.7,47.4,29.3,38.4,28.8,17.2,75,50,27,30.18,30.01,7,2,21,0.00
2014-4-11,79.4,57.4,47.7,57.1,48.2,38.4,100,74,45,30.08,29.95,7,2,17,0.06
2014-4-12,74.4,56.3,40.9,52.4,44.5,39.0,100,70,37,30.25,30.03,4,1,15,0.01
2014-4-13,67.4,50.7,43.5,54.7,46.1,39.1,100,85,56,30.31,30.08,2,0,6,0.01
2014-4-14,80.1,60.5,40.9,66.8,55.2,40.9,100,85,60,30.08,29.92,11,4,29,0.00
2014-4-15,65.4,59.9,41.8,65.3,59.9,41.4,100,100,98,29.96,29.60,11,5,28,0.57
2014-4-16,50.8,38.0,29.0,41.1,31.2,23.3,100,78,51,30.64,29.79,4,1,14,0.40
2014-4-17,51.4,35.8,25.4,33.6,27.3,21.8,95,73,48,30.82,30.64,2,0,10,0.00
2014-4-18,52.6,37.5,24.7,39.5,33.3,24.7,100,86,60,30.69,30.28,2,0,8,0.00
2014-4-19,70.1,48.6,33.4,48.1,38.3,30.7,100,72,42,30.45,30.19,4,1,13,0.00
2014-4-20,64.3,46.3,31.8,38.1,31.8,24.7,94,61,32,30.55,30.37,3,0,10,0.00
2014-4-21,76.2,54.5,33.6,41.2,35.0,30.8,96,54,25,30.37,29.88,5,1,12,0.00
2014-4-22,79.1,60.6,45.7,56.1,48.6,39.3,100,68,39,29.88,29.52,5,2,18,0.00
2014-4-23,55.3,50.9,44.6,55.3,48.3,38.3,100,91,73,29.67,29.47,6,2,16,0.45
2014-4-24,63.2,49.0,38.6,39.4,33.4,25.7,77,56,36,29.97,29.66,7,4,26,0.00
2014-4-25,70.8,53.2,37.9,41.3,35.4,30.2,77,54,27,30.04,29.85,3,1,10,0.00
2014-4-26,51.0,44.7,41.1,45.2,42.3,36.3,100,92,60,29.91,29.81,1,0,5,0.28
2014-4-27,57.1,44.4,39.6,52.0,44.0,39.6,100,98,78,30.09,29.87,1,0,8,0.18
2014-4-28,67.6,49.4,36.6,52.2,44.0,36.6,100,84,53,30.27,30.02,2,0,9,0.00
2014-4-29,47.4,42.8,40.1,45.3,40.8,38.8,100,92,82,30.56,30.26,1,0,12,0.00
2014-4-30,47.6,41.3,38.7,45.5,41.1,38.7,100,99,90,30.57,30.20,1,0,10,0.51
2014-5-1,65.0,50.7,40.6,64.6,50.7,40.6,100,100,97,30.19,29.69,2,0,5,0.89
2014-5-2,73.2,57.1,45.9,57.8,50.7,45.3,100,81,56,29.85,29.70,3,1,10,0.01
2014-5-3,72.2,58.0,46.8,54.1,48.4,43.7,90,72,47,29.89,29.75,2,0,8,0.00
2014-5-4,64.1,53.7,47.3,52.0,46.7,42.7,98,78,58,29.75,29.57,7,2,21,0.00
2014-5-5,67.4,54.7,45.7,52.1,47.0,43.3,95,76,54,29.90,29.65,4,1,11,0.00
2014-5-6,74.6,54.0,41.7,49.7,41.8,34.5,99,67,37,30.07,29.85,4,1,11,0.00
2014-5-7,77.4,57.4,40.3,47.1,37.7,31.7,80,51,28,30.21,30.07,2,0,11,0.00
2014-5-8,78.9,60.1,42.6,59.5,47.9,34.1,98,67,37,30.22,30.08,4,1,10,0.00
2014-5-9,56.7,53.3,51.0,56.7,52.9,51.0,100,98,90,30.27,30.10,0,0,4,0.00
2014-5-10,83.5,64.2,52.0,74.0,61.9,52.0,100,94,63,30.10,29.79,5,1,14,0.09
2014-5-11,87.4,73.2,61.7,63.2,51.9,44.6,100,52,28,30.08,29.83,4,1,9,0.00
2014-5-12,94.0,73.4,55.9,60.1,52.2,45.2,69,50,29,30.15,30.01,3,1,15,0.00
2014-5-13,59.1,51.6,45.1,52.0,48.1,44.3,100,88,71,30.36,30.16,1,0,7,0.00
2014-5-14,79.9,59.1,44.2,59.1,51.9,44.0,100,80,45,30.35,30.26,2,0,7,0.00
2014-5-15,84.1,67.4,58.9,72.6,64.2,54.6,100,90,65,30.31,30.24,5,1,12,0.00
2014-5-16,69.9,65.0,62.9,69.6,64.9,62.9,100,100,95,30.24,30.00,3,1,13,0.38
2014-5-17,80.4,66.3,53.0,65.4,58.5,45.5,100,79,47,30.09,29.86,4,1,12,0.39
2014-5-18,77.9,59.1,46.4,58.7,47.4,41.1,98,68,42,30.13,30.03,1,0,6,0.00
2014-5-19,70.4,56.8,47.5,52.5,45.5,39.8,100,67,45,30.11,30.03,2,0,7,0.00
2014-5-20,83.0,62.9,50.3,56.3,51.8,47.8,100,71,37,30.05,29.95,2,0,13,0.00
2014-5-21,83.9,62.8,46.9,63.0,55.5,46.9,100,80,41,30.02,29.92,1,0,8,0.00
2014-5-22,68.8,57.1,50.4,62.9,56.4,50.4,100,98,81,29.98,29.88,1,0,6,0.21
2014-5-23,60.9,56.0,51.6,60.9,56.0,51.6,100,100,99,30.01,29.88,0,0,5,0.01
2014-5-24,65.1,56.2,50.9,61.3,55.3,50.9,100,97,82,30.07,29.97,1,0,5,0.06
2014-5-25,77.9,60.8,52.7,67.5,58.7,52.7,100,94,65,30.10,30.02,2,0,7,0.02
2014-5-26,79.9,66.9,56.2,68.8,61.7,56.2,100,85,65,30.02,29.82,2,0,9,0.01
2014-5-27,77.7,61.5,47.8,71.1,59.6,47.8,100,94,79,29.98,29.83,1,0,8,0.27
2014-5-28,50.0,47.6,42.6,50.0,47.6,42.6,100,100,100,30.22,29.92,1,0,8,0.16
2014-5-29,73.8,53.3,38.5,58.2,47.8,38.5,100,84,50,30.24,30.14,1,0,6,0.00
2014-5-30,79.4,59.3,45.5,64.8,54.7,45.5,100,87,55,30.15,29.98,2,0,8,0.02
2014-5-31,73.4,57.7,47.7,62.8,53.2,42.4,100,86,63,30.30,30.06,1,0,9,0.00
2014-6-1,84.8,62.4,43.7,59.7,51.8,43.7,100,73,37,30.33,30.23,2,0,7,0.00
2014-6-2,90.2,69.9,53.5,66.3,58.1,48.7,94,69,40,30.24,30.01,2,0,9,0.00
2014-6-3,90.8,73.0,57.8,72.0,65.0,57.8,100,78,51,30.04,29.89,2,0,10,0.00
2014-6-4,65.7,60.5,54.9,65.0,59.9,54.8,100,98,80,29.93,29.77,1,0,5,0.13
2014-6-5,61.7,58.9,56.6,61.7,58.9,56.6,100,100,100,29.80,29.65,0,0,4,0.40
2014-6-6,77.7,63.5,54.3,67.1,60.0,54.3,100,89,67,29.89,29.70,1,0,5,0.00
2014-6-7,89.8,69.7,55.0,70.9,62.9,55.0,100,82,50,29.95,29.87,1,0,4,0.00
2014-6-8,89.6,72.8,58.8,70.7,64.4,58.8,100,78,48,29.95,29.87,2,0,7,0.00
2014-6-9,80.3,68.8,62.8,72.7,65.1,60.8,100,88,72,29.99,29.91,2,0,9,0.00
2014-6-10,82.9,68.5,60.9,76.9,67.6,60.9,100,97,80,30.11,29.93,1,0,10,0.00
2014-6-11,76.3,62.8,55.6,65.1,58.9,55.6,100,88,62,30.16,30.10,1,0,9,0.00
2014-6-12,68.5,61.8,57.4,66.9,61.5,57.4,100,99,92,30.16,30.05,1,0,6,0.00
2014-6-13,62.7,60.2,58.7,62.7,60.2,58.7,100,100,100,30.05,29.79,0,0,7,0.68
2014-6-14,74.8,63.4,57.9,74.0,63.0,57.6,100,98,90,29.91,29.78,1,0,3,0.01
2014-6-15,84.0,66.6,53.6,69.7,60.0,53.6,100,81,59,30.05,29.90,1,0,5,0.00
2014-6-16,87.1,69.0,53.9,63.4,58.7,53.6,100,73,40,30.13,30.00,1,0,5,0.00
2014-6-17,92.0,75.7,62.4,78.7,70.0,60.9,100,84,60,30.05,29.85,2,0,8,0.00
2014-6-18,88.2,76.2,67.6,76.7,70.9,66.9,100,85,62,29.94,29.72,2,1,10,0.05
2014-6-19,89.9,74.3,60.7,71.1,62.7,47.7,100,71,40,29.96,29.89,1,0,5,0.00
2014-6-20,84.4,66.2,55.1,59.1,53.4,49.4,92,66,38,29.96,29.86,2,0,6,0.00
2014-6-21,84.9,63.9,50.2,61.4,54.3,49.3,99,73,44,29.95,29.85,1,0,5,0.00
2014-6-22,83.3,64.9,51.1,63.7,57.5,51.1,100,79,51,30.01,29.91,1,0,6,0.00
2014-6-23,89.6,68.6,52.6,68.6,60.1,52.6,100,78,46,30.14,30.01,2,0,7,0.00
2014-6-24,90.2,71.0,58.2,72.1,63.6,54.8,100,79,54,30.14,29.98,3,1,13,0.00
2014-6-25,95.5,77.2,64.1,81.0,71.6,60.5,100,84,60,29.99,29.83,3,1,10,0.00
2014-6-26,81.3,70.3,59.7,79.8,70.3,59.7,100,100,95,29.98,29.77,1,0,7,0.91
2014-6-27,85.1,67.9,57.5,69.8,61.9,57.5,100,83,54,30.17,29.98,1,0,6,0.00
2014-6-28,91.6,70.7,54.8,73.2,61.8,54.4,100,77,43,30.23,30.17,1,0,5,0.00
2014-6-29,91.9,74.7,61.7,74.0,67.3,60.3,99,80,50,30.22,30.06,1,0,7,0.00
2014-6-30,94.3,77.0,62.6,76.3,69.2,59.6,94,78,55,30.07,29.88,2,1,9,0.00
2014-7-1,93.8,79.1,67.5,81.6,74.9,67.4,100,88,67,29.90,29.74,2,1,12,0.00
2014-7-2,99.0,79.6,70.6,87.3,76.6,70.6,100,91,68,29.89,29.77,3,1,14,0.02
2014-7-3,95.0,76.3,69.3,84.7,75.1,69.3,100,96,72,29.98,29.83,4,0,16,1.17
2014-7-4,72.8,67.3,62.0,72.8,67.3,61.9,100,100,100,29.95,29.76,0,0,6,1.13
2014-7-5,83.1,68.5,57.1,64.3,60.2,55.2,100,78,49,29.96,29.74,3,1,10,0.17
2014-7-6,88.7,73.4,61.9,71.2,63.3,55.6,90,72,52,29.96,29.82,3,1,12,0.00
2014-7-7,91.8,76.3,67.5,78.9,71.6,66.6,100,87,63,29.83,29.65,3,1,14,0.18